Cotton Center, Texas
Current Conditions -  °F | °C
As of 5:35 AM on Saturday 20 Dec 2014 (Local Time) from KPVW Reporting Station
Overcast Overcast  
Wind Chill: 28°   Ceiling: 400
Heat Index: 36°   Visibility: 7mi
Dew Point: 35°   Wind: 12mph
Humidity: 95%   Direction: 250°WSW
Pressure: 30.11"   Gusts: NA
Location:  33.99°N, 101.99°W
Report Text: KPVW 201135Z AUTO 25010KT 7SM OVC004 02/02 A3011 RMK AO2 T00220015
Loading
Personal Weather Stations






























Interactive Weather Map New forecast layout! Learn more

10-Day Weather Forecast

Advertisements
Track Severe Weather on mobile